M I D A S
Marine Information and Data Acquisition System
Tripno 775 of the Zeeleeuw from 2004-03-18 07:12:37 to 2004-03-18 11:41:07
Back to CruiseResearch ActivitiesStationsMapUnderway DataData graphs

EquipmentUnitsComment
TimeDGPSUTC
LatitudeDGPSDM.mWGS84
LongitudeDGPSDM.mWGS84
TemperatureSBE03/SBE38deg celciusITS90
ConductivitySBE21S/mITS90
SalinitySBE21 Practical Salinity Units
ChlorophylAChelsea fluorimeterg/lCalibrated in Aceton
Missing or incorrect values are displayed as -999
Sea surface data collected by the RV Zeeleeuw from 2004-03-18 07:12:37 to 2004-03-18 11:41:07
Time Latitude Longitude Temperature Conductivity Salinity ChlorophylA
2004-03-18 07:13:41 51°13.656 2°55.888 7.218976 2.697634 25.580489 22.545657
2004-03-18 07:14:41 51°13.685 2°55.783 7.149945 2.7232 25.944321 22.3434
2004-03-18 07:15:40 51°13.698 2°55.746 7.203011 2.718256 25.926612 22.781623
2004-03-18 07:16:41 51°13.692 2°55.737 7.158229 2.594441 24.5772 22.849042
2004-03-18 07:17:40 51°13.729 2°55.714 7.140582 2.779176 26.614338 22.107435
2004-03-18 07:18:41 51°13.817 2°55.646 7.208153 2.703843 25.789878 22.882751
2004-03-18 07:19:40 51°13.923 2°55.568 7.162591 2.626418 24.958876 22.37711
2004-03-18 07:20:40 51°14.044 2°55.492 7.099436 2.701002 25.783372 20.489383
2004-03-18 07:21:40 51°14.175 2°55.394 7.168668 2.698478 25.767568 20.354546
2004-03-18 07:22:41 51°14.294 2°55.2 7.333942 2.404526 22.593035 20.051161
2004-03-18 07:23:39 51°14.383 2°54.964 7.041129 2.698898 25.768207 20.455674
2004-03-18 07:24:40 51°14.376 2°54.65 6.825203 2.995244 29.085546 19.174717
2004-03-18 07:25:40 51°14.268 2°54.355 6.711734 3.138109 30.743876 17.792631
2004-03-18 07:26:40 51°14.158 2°54.046 6.637012 3.207082 31.604553 17.927469
2004-03-18 07:27:40 51°14.045 2°53.735 6.615167 3.188443 31.43094 19.00617
2004-03-18 07:28:40 51°13.932 2°53.417 6.588468 3.200027 31.582539 18.601657
2004-03-18 07:29:41 51°13.813 2°53.081 6.573037 3.211611 31.726545 17.657794
2004-03-18 07:30:41 51°13.696 2°52.743 6.53959 3.218351 31.828055 18.702785
2004-03-18 07:31:39 51°13.584 2°52.413 6.526622 3.225301 31.928093 19.376973
2004-03-18 07:32:40 51°13.466 2°52.062 6.526573 3.192446 31.573629 18.635366
2004-03-18 07:33:41 51°13.349 2°51.712 6.542114 3.218035 31.851613 19.714067
2004-03-18 07:34:41 51°13.233 2°51.369 6.575807 3.23025 31.959229 19.511811
2004-03-18 07:35:40 51°13.118 2°51.032 6.607258 3.251944 32.167411 18.3994
2004-03-18 07:36:41 51°13.002 2°50.684 6.636667 3.236568 31.972652 18.736494
2004-03-18 07:37:41 51°12.887 2°50.344 6.68073 3.259737 32.195867 18.871332
2004-03-18 07:38:40 51°12.774 2°50.008 6.718446 3.260368 32.161977 17.421828
2004-03-18 07:39:39 51°12.662 2°49.673 6.756682 3.261527 32.141104 17.758922
2004-03-18 07:40:40 51°12.547 2°49.325 6.77054 3.271321 32.223296 19.174717
2004-03-18 07:41:40 51°12.433 2°48.982 6.781092 3.277534 32.281533 18.534238
2004-03-18 07:42:40 51°12.32 2°48.64 6.801993 3.276376 32.256094 18.163435
2004-03-18 07:43:41 51°12.211 2°48.288 6.811653 3.276375 32.237722 17.556665
2004-03-18 07:44:40 51°12.109 2°47.948 6.809681 3.300283 32.496173 17.893759
2004-03-18 07:45:40 51°12.005 2°47.601 6.813624 3.293227 32.420758 18.230853
2004-03-18 07:46:40 51°11.9 2°47.255 6.811998 3.328299 32.80059 18.197144
2004-03-18 07:47:40 51°11.795 2°46.908 6.817615 3.332723 32.849761 19.208426
2004-03-18 07:48:40 51°11.702 2°46.553 6.833036 3.332723 32.837563 18.197144
2004-03-18 07:49:40 51°11.617 2°46.198 6.861455 3.326403 32.757156 17.354409
2004-03-18 07:50:41 51°11.521 2°45.837 6.888975 3.338726 32.851952 16.579093
2004-03-18 07:51:40 51°11.434 2°45.486 6.901525 3.361477 33.087319 15.500392
2004-03-18 07:52:40 51°11.346 2°45.131 6.898523 3.354947 33.007036 15.63523
2004-03-18 07:53:40 51°11.255 2°44.776 6.918352 3.350207 32.950422 15.264426
2004-03-18 07:54:40 51°11.166 2°44.42 6.917516 3.362425 33.076427 15.399264
2004-03-18 07:55:40 51°11.079 2°44.064 6.9246 3.378752 33.246493 15.331845
2004-03-18 07:56:40 51°10.991 2°43.71 6.932274 3.37359 33.187677 15.534101
2004-03-18 07:57:40 51°10.912 2°43.35 6.929765 3.393183 33.402491 15.399264
2004-03-18 07:58:40 51°10.836 2°42.99 6.928732 3.393077 33.398042 15.163298
2004-03-18 07:59:40 51°10.758 2°42.631 6.92519 3.406245 33.540298 15.197007
2004-03-18 08:00:40 51°10.68 2°42.273 6.915892 3.407193 33.558116 14.387982
2004-03-18 08:01:40 51°10.603 2°41.917 6.913383 3.408562 33.581381 15.500392
2004-03-18 08:02:40 51°10.528 2°41.56 6.907626 3.407615 33.580962 16.107161
2004-03-18 08:03:40 51°10.451 2°41.204 6.896259 3.408563 33.595484 15.331845
2004-03-18 08:04:39 51°10.377 2°40.857 6.858894 3.40909 33.622845 15.365554
2004-03-18 08:05:41 51°10.299 2°40.494 6.851852 3.406351 33.620283 16.107161
2004-03-18 08:06:40 51°10.226 2°40.152 6.843923 3.403717 33.586441 15.837486
2004-03-18 08:07:41 51°10.151 2°39.797 6.840278 3.402032 33.586257 15.466683
2004-03-18 08:08:41 51°10.078 2°39.448 6.821557 3.401506 33.591294 17.253281
2004-03-18 08:09:40 51°10.007 2°39.104 6.803324 3.4014 33.601788 15.904905
2004-03-18 08:10:40 51°9.933 2°38.752 6.801697 3.401822 33.613904 15.702648
2004-03-18 08:11:40 51°9.859 2°38.4 6.802634 3.402665 33.625648 16.646512
2004-03-18 08:12:41 51°9.786 2°38.043 6.824218 3.404771 33.640428 17.017315
2004-03-18 08:13:40 51°9.714 2°37.699 6.861406 3.408669 33.652342 16.983606
2004-03-18 08:14:40 51°9.641 2°37.349 6.8874 3.412144 33.657132 17.354409
2004-03-18 08:15:40 51°9.557 2°37.007 6.918992 3.414672 33.658196 17.556665
2004-03-18 08:16:39 51°9.472 2°36.671 6.935126 3.415936 33.64959 18.331982
2004-03-18 08:17:40 51°9.386 2°36.324 6.94393 3.416463 33.643726 19.511811
2004-03-18 08:18:41 51°9.303 2°35.976 6.948601 3.416568 33.640727 11.185589
2004-03-18 08:19:39 51°9.226 2°35.647 6.985324 3.41562 33.609633 10.747366
2004-03-18 08:20:41 51°9.143 2°35.296 7.006306 3.413618 33.554678 9.870922
2004-03-18 08:21:41 51°9.061 2°34.956 7.006404 3.413407 33.555684 9.837212
2004-03-18 08:22:39 51°8.985 2°34.629 7.01785 3.414355 33.556115 9.702375
2004-03-18 08:23:41 51°8.932 2°34.401 7.039607 3.411722 33.513352 9.736084
2004-03-18 08:24:40 51°8.939 2°34.26 7.04761 3.410141 33.480465 8.82593
2004-03-18 08:25:40 51°8.943 2°34.237 7.045646 3.410352 33.481114 8.758512
2004-03-18 08:26:40 51°8.946 2°34.237 7.031013 3.412037 33.505255 8.792221
2004-03-18 08:27:39 51°8.947 2°34.236 7.027477 3.412248 33.514973 8.724802
2004-03-18 08:28:39 51°8.949 2°34.236 7.021534 3.413723 33.54096 9.264153
2004-03-18 08:29:40 51°8.95 2°34.237 7.021829 3.413618 33.539811 8.994477
2004-03-18 08:30:41 51°8.951 2°34.237 7.019667 3.41425 33.548358 9.095606
2004-03-18 08:31:41 51°8.951 2°34.237 7.016867 3.414355 33.550333 9.196734
2004-03-18 08:32:40 51°8.951 2°34.238 7.019864 3.415093 33.56003 8.960768
2004-03-18 08:33:40 51°8.951 2°34.239 7.020306 3.415093 33.563336 9.028187
2004-03-18 08:34:41 51°8.952 2°34.241 7.015787 3.414987 33.560533 9.297862
2004-03-18 08:35:40 51°8.953 2°34.244 7.021681 3.414671 33.554607 9.466409
2004-03-18 08:36:41 51°8.953 2°34.244 7.023646 3.414566 33.550154 9.331571
2004-03-18 08:37:40 51°8.955 2°34.247 7.025218 3.414144 33.545557 9.365281
2004-03-18 08:38:39 51°8.956 2°34.249 7.038772 3.414039 33.536153 8.994477
2004-03-18 08:39:39 51°8.94 2°34.241 7.045892 3.413934 33.526754 8.657383
2004-03-18 08:40:39 51°8.906 2°34.197 7.065381 3.414881 33.517302 8.556255
2004-03-18 08:41:41 51°8.883 2°34.106 7.055465 3.41604 33.533228 8.421418
2004-03-18 08:42:39 51°8.884 2°34.001 7.044713 3.41762 33.552101 8.252871
2004-03-18 08:43:41 51°8.88 2°33.882 7.045744 3.418358 33.575001 8.589965
2004-03-18 08:44:39 51°8.88 2°33.768 7.048248 3.419411 33.575752 7.848358
2004-03-18 08:45:41 51°8.887 2°33.644 7.028066 3.421624 33.611445 8.353999
2004-03-18 08:46:41 51°8.895 2°33.533 7.032781 3.422045 33.624315 8.421418
2004-03-18 08:47:40 51°8.9 2°33.446 7.046726 3.42352 33.631302 7.983195
2004-03-18 08:48:40 51°8.906 2°33.371 7.05576 3.424257 33.629418 7.612392
2004-03-18 08:49:40 51°8.919 2°33.305 7.047806 3.425205 33.639758 7.74723
2004-03-18 08:50:40 51°8.936 2°33.244 7.045253 3.425521 33.64817 7.915777
2004-03-18 08:51:40 51°8.951 2°33.185 7.058607 3.426258 33.649592 7.882067
2004-03-18 08:52:41 51°8.963 2°33.13 7.069553 3.42689 33.644901 7.477554
2004-03-18 08:53:41 51°8.97 2°33.085 7.082018 3.42826 33.644118 7.005623
2004-03-18 08:54:41 51°8.972 2°33.053 7.09816 3.42984 33.649764 7.106751
2004-03-18 08:55:40 51°8.972 2°33.031 7.105911 3.431209 33.652286 7.14046
2004-03-18 08:56:41 51°8.972 2°33.017 7.113759 3.432473 33.66027 7.241589
2004-03-18 08:57:40 51°8.973 2°33.008 7.114201 3.433316 33.663664 7.477554
2004-03-18 08:58:40 51°8.973 2°33.003 7.109394 3.433421 33.668943 7.309007
2004-03-18 08:59:40 51°8.975 2°33.001 7.094039 3.433211 33.679049 7.578683
2004-03-18 09:00:41 51°8.978 2°33.001 7.089722 3.433316 33.686815 7.848358
2004-03-18 09:01:41 51°8.981 2°33.004 7.089378 3.433211 33.689805 7.882067
2004-03-18 09:02:40 51°8.985 2°33.007 7.086385 3.433737 33.695545 8.151742
2004-03-18 09:03:41 51°8.991 2°33.013 7.092322 3.433632 33.69688 7.74723
2004-03-18 09:04:41 51°8.996 2°33.019 7.095168 3.433948 33.695358 8.084324
2004-03-18 09:05:39 51°9.002 2°33.028 7.097032 3.434475 33.696959 7.882067
2004-03-18 09:06:40 51°9.005 2°33.036 7.098259 3.434685 33.695945 7.882067
2004-03-18 09:07:41 51°9.004 2°33.045 7.101545 3.435212 33.699201 7.780939
2004-03-18 09:08:41 51°9 2°33.057 7.106255 3.435634 33.701309 8.084324
2004-03-18 09:09:41 51°8.994 2°33.073 7.108217 3.435844 33.70195 7.915777
2004-03-18 09:10:41 51°8.987 2°33.09 7.11062 3.436371 33.705205 7.882067
2004-03-18 09:11:40 51°8.979 2°33.105 7.12396 3.437213 33.701148 7.74723
2004-03-18 09:12:41 51°8.97 2°33.114 7.12955 3.437529 33.697147 7.410136
2004-03-18 09:13:40 51°8.965 2°33.114 7.129452 3.437319 33.694853 7.106751
2004-03-18 09:14:41 51°8.962 2°33.107 7.136072 3.437319 33.692373 6.904494
2004-03-18 09:15:41 51°8.958 2°33.1 7.138768 3.437845 33.693974 7.005623
2004-03-18 09:16:40 51°8.953 2°33.096 7.149112 3.438583 33.695389 6.938204
2004-03-18 09:17:39 51°8.95 2°33.096 7.146269 3.438899 33.697176 7.039332
2004-03-18 09:18:40 51°8.949 2°33.099 7.15024 3.439109 33.697816 6.904494
2004-03-18 09:19:41 51°8.949 2°33.107 7.15671 3.439741 33.69478 6.904494
2004-03-18 09:20:40 51°8.952 2°33.116 7.156416 3.440373 33.699179 7.17417
2004-03-18 09:21:41 51°8.956 2°33.127 7.14671 3.440268 33.707121 7.612392
2004-03-18 09:22:40 51°8.961 2°33.14 7.135189 3.439742 33.708828 7.915777
2004-03-18 09:23:41 51°8.968 2°33.154 7.127687 3.439004 33.710723 7.983195
2004-03-18 09:24:41 51°8.975 2°33.169 7.121067 3.438899 33.716193 8.118033
2004-03-18 09:25:40 51°8.973 2°33.162 7.125971 3.438583 33.714406 8.016905
2004-03-18 09:26:41 51°8.987 2°33.036 7.137444 3.439426 33.707868 8.016905
2004-03-18 09:27:40 51°9.07 2°32.897 7.137788 3.441216 33.721573 7.443845
2004-03-18 09:28:41 51°9.134 2°32.761 7.097964 3.446694 33.796121 7.949486
2004-03-18 09:29:40 51°9.147 2°32.751 7.045597 3.444272 33.833655 8.252871
2004-03-18 09:30:41 51°9.154 2°32.759 7.025709 3.442587 33.837727 8.960768
2004-03-18 09:31:40 51°9.16 2°32.768 7.01672 3.440796 33.834825 9.668665
2004-03-18 09:32:41 51°9.165 2°32.777 7.007239 3.439954 33.834782 9.97205
2004-03-18 09:33:41 51°9.17 2°32.787 7.004586 3.439427 33.83486 10.342853
2004-03-18 09:34:41 51°9.175 2°32.796 7.007042 3.439216 33.832558 10.309144
2004-03-18 09:35:41 51°9.18 2°32.806 7.003849 3.439111 33.833907 10.814785
2004-03-18 09:36:40 51°9.186 2°32.817 7.000606 3.438795 33.83462 10.747366
2004-03-18 09:37:41 51°9.19 2°32.828 7.005274 3.438584 33.828984 10.410272
2004-03-18 09:38:41 51°9.198 2°32.764 7.006158 3.439006 33.831089 10.949623
2004-03-18 09:39:41 51°9.297 2°32.695 6.996037 3.439216 33.832558 10.747366
2004-03-18 09:40:41 51°9.419 2°32.839 6.936061 3.437636 33.847805 11.253007
2004-03-18 09:41:41 51°9.565 2°33.07 6.931241 3.434371 33.856335 13.174443
2004-03-18 09:42:40 51°9.709 2°33.316 6.927355 3.434055 33.856218 12.80364
2004-03-18 09:43:41 51°9.857 2°33.573 6.92524 3.43395 33.851721 12.702512
2004-03-18 09:44:41 51°10.002 2°33.825 6.931782 3.433845 33.849732 12.466546
2004-03-18 09:45:41 51°10.148 2°34.077 6.93552 3.434371 33.850485 12.196871
2004-03-18 09:46:39 51°10.288 2°34.321 6.948405 3.434792 33.845072 12.500255
2004-03-18 09:47:41 51°10.439 2°34.582 6.970382 3.435635 33.837596 12.904768
2004-03-18 09:48:40 51°10.591 2°34.845 6.972299 3.436162 33.834179 12.264289
2004-03-18 09:49:40 51°10.728 2°35.089 6.981195 3.436688 33.832432 12.095742
2004-03-18 09:50:41 51°10.871 2°35.357 6.976379 3.436372 33.832312 12.062033
2004-03-18 09:51:41 51°11.009 2°35.616 6.976231 3.436372 33.831478 11.724939
2004-03-18 09:52:41 51°11.118 2°35.818 6.988125 3.436372 33.825641 11.185589
2004-03-18 09:53:40 51°11.191 2°35.965 6.987437 3.436794 33.828581 11.286717
2004-03-18 09:54:41 51°11.233 2°36.089 6.991909 3.436899 33.823897 11.11817
2004-03-18 09:55:41 51°11.256 2°36.193 6.99643 3.437004 33.820882 10.781076
2004-03-18 09:56:40 51°11.269 2°36.244 7.003161 3.437215 33.819018 10.612529
2004-03-18 09:57:41 51°11.278 2°36.261 7.007386 3.437531 33.818306 11.286717
2004-03-18 09:58:41 51°11.287 2°36.282 7.006649 3.437425 33.814657 11.488973
2004-03-18 09:59:40 51°11.296 2°36.306 7.009351 3.437741 33.816444 11.219298
2004-03-18 10:00:41 51°11.307 2°36.334 7.007632 3.438163 33.816051 11.320426
2004-03-18 10:01:41 51°11.319 2°36.363 7.017555 3.438057 33.817398 10.915913
2004-03-18 10:02:41 51°11.33 2°36.395 7.012446 3.438163 33.818549 10.781076
2004-03-18 10:03:41 51°11.367 2°36.442 7.015934 3.438268 33.817202 10.983332
2004-03-18 10:04:40 51°11.417 2°36.408 7.015296 3.438373 33.815854 11.522683
2004-03-18 10:05:41 51°11.396 2°36.345 7.011071 3.438163 33.815218 11.185589
2004-03-18 10:06:41 51°11.335 2°36.29 7.007632 3.438373 33.820851 10.410272
2004-03-18 10:07:41 51°11.274 2°36.226 6.993187 3.438058 33.825728 10.376563
2004-03-18 10:08:39 51°11.24 2°36.213 6.994513 3.437531 33.825805 9.837212
2004-03-18 10:09:41 51°11.234 2°36.211 6.991811 3.43732 33.827669 10.208016
2004-03-18 10:10:41 51°11.232 2°36.211 6.987486 3.43732 33.828503 10.612529
2004-03-18 10:11:41 51°11.231 2°36.214 7.003702 3.437426 33.827987 10.5114
2004-03-18 10:12:41 51°11.23 2°36.222 7.000852 3.438795 33.827954 10.578819
2004-03-18 10:13:41 51°11.229 2°36.233 6.998641 3.438795 33.831286 10.848494
2004-03-18 10:14:41 51°11.228 2°36.247 6.995644 3.438268 33.833031 11.08446
2004-03-18 10:15:40 51°11.228 2°36.263 6.992548 3.437952 33.832911 11.08446
2004-03-18 10:16:41 51°11.227 2°36.281 6.994808 3.438058 33.832395 10.646238
2004-03-18 10:17:41 51°11.227 2°36.299 6.99299 3.437847 33.830926 11.185589
2004-03-18 10:18:40 51°11.228 2°36.319 6.995152 3.437847 33.83176 11.219298
2004-03-18 10:19:41 51°11.229 2°36.34 6.988911 3.437847 33.830926 11.050751
2004-03-18 10:20:41 51°11.231 2°36.361 6.992056 3.437636 33.831958 10.882204
2004-03-18 10:21:41 51°11.232 2°36.383 6.994464 3.437952 33.832911 11.219298
2004-03-18 10:22:41 51°11.234 2°36.406 6.99299 3.438584 33.833984 10.781076
2004-03-18 10:23:41 51°11.204 2°36.439 6.993727 3.438058 33.834063 10.747366
2004-03-18 10:24:41 51°11.044 2°36.494 7.007386 3.439006 33.831922 11.522683
2004-03-18 10:25:40 51°10.829 2°36.528 7.007878 3.438373 33.820018 12.365418
2004-03-18 10:26:41 51°10.605 2°36.576 7.027673 3.438268 33.814704 10.342853
2004-03-18 10:27:40 51°10.391 2°36.626 7.072596 3.441112 33.805823 10.781076
2004-03-18 10:28:40 51°10.197 2°36.824 7.081331 3.439531 33.763675 9.500118
2004-03-18 10:29:41 51°10.064 2°37.156 7.081135 3.438689 33.747853 8.084324
2004-03-18 10:30:41 51°10.023 2°37.554 7.05576 3.437635 33.751294 8.724802
2004-03-18 10:31:40 51°10.006 2°37.954 7.047021 3.432474 33.718216 9.567537
2004-03-18 10:32:41 51°10.042 2°38.369 7.049279 3.42826 33.66811 9.028187
2004-03-18 10:33:39 51°10.09 2°38.762 7.024874 3.422782 33.631533 10.309144
2004-03-18 10:34:41 51°10.152 2°39.183 7.040834 3.422466 33.61733 9.702375
2004-03-18 10:35:41 51°10.223 2°39.586 7.044762 3.423098 33.624224 10.443982
2004-03-18 10:36:41 51°10.302 2°39.983 7.030669 3.423309 33.624868 10.781076
2004-03-18 10:37:41 51°10.336 2°40.393 6.999132 3.422256 33.635719 12.062033
2004-03-18 10:38:41 51°10.372 2°40.8 6.991565 3.420255 33.641205 11.960905
2004-03-18 10:39:41 51°10.408 2°41.204 6.956223 3.420044 33.651341 11.69123
2004-03-18 10:40:41 51°10.444 2°41.606 6.904625 3.416779 33.657978 10.612529
2004-03-18 10:41:39 51°10.479 2°41.994 6.859928 3.411512 33.648546 9.904631
2004-03-18 10:42:41 51°10.544 2°42.396 6.849143 3.407299 33.628176 10.106888
2004-03-18 10:43:41 51°10.672 2°42.745 6.840573 3.404455 33.609486 10.612529
2004-03-18 10:44:40 51°10.795 2°43.092 6.848996 3.403507 33.60159 11.08446
2004-03-18 10:45:41 51°10.929 2°43.441 6.862883 3.404034 33.594058 10.140597
2004-03-18 10:46:41 51°11.04 2°43.803 6.870515 3.40456 33.590687 9.702375
2004-03-18 10:47:40 51°11.147 2°44.161 6.881542 3.405508 33.58861 9.331571
2004-03-18 10:48:41 51°11.262 2°44.532 6.89119 3.40772 33.597052 8.792221
2004-03-18 10:49:40 51°11.379 2°44.889 6.893454 3.409721 33.6173 8.219161
2004-03-18 10:50:41 51°11.501 2°45.259 6.90866 3.41246 33.634816 8.118033
2004-03-18 10:51:40 51°11.61 2°45.624 6.92706 3.414778 33.64439 8.320289
2004-03-18 10:52:41 51°11.724 2°46.003 6.937733 3.415726 33.647286 8.657383
2004-03-18 10:53:41 51°11.836 2°46.377 6.948356 3.416357 33.640914 8.589965
2004-03-18 10:54:40 51°11.948 2°46.748 6.963794 3.416779 33.638881 8.353999
2004-03-18 10:55:41 51°12.063 2°47.129 6.972938 3.417516 33.631181 8.118033
2004-03-18 10:56:41 51°12.177 2°47.503 6.978246 3.417727 33.62685 8.522546
2004-03-18 10:57:40 51°12.296 2°47.866 6.971611 3.417094 33.613317 8.320289
2004-03-18 10:58:41 51°12.418 2°48.24 6.933749 3.415515 33.621745 8.724802
2004-03-18 10:59:41 51°12.539 2°48.604 6.932569 3.410564 33.589176 9.297862
2004-03-18 11:00:40 51°12.657 2°48.963 6.928486 3.402979 33.509563 9.163024
2004-03-18 11:01:41 51°12.78 2°49.335 6.923419 3.396975 33.443932 9.163024
2004-03-18 11:02:41 51°12.902 2°49.702 6.933602 3.393499 33.401822 9.230443
2004-03-18 11:03:41 51°13.022 2°50.07 6.894241 3.384545 33.331983 9.196734
2004-03-18 11:04:41 51°13.142 2°50.437 6.889713 3.377277 33.259122 8.82593
2004-03-18 11:05:41 51°13.246 2°50.697 6.895422 3.37496 33.238723 8.994477
2004-03-18 11:06:40 51°13.338 2°50.876 6.900048 3.373591 33.220473 8.893349
2004-03-18 11:07:41 51°13.391 2°51.036 6.915991 3.369377 33.177713 8.960768
2004-03-18 11:08:41 51°13.413 2°51.12 6.918598 3.369166 33.141838 8.455127
2004-03-18 11:09:41 51°13.437 2°51.104 6.898966 3.366112 33.128939 9.061896
2004-03-18 11:10:41 51°13.457 2°51.099 6.893306 3.364743 33.122984 8.994477
2004-03-18 11:11:41 51°13.474 2°51.103 6.888335 3.364532 33.121501 9.163024
2004-03-18 11:12:41 51°13.489 2°51.116 6.882871 3.364111 33.122627 8.893349
2004-03-18 11:13:39 51°13.503 2°51.134 6.884693 3.363373 33.123575 9.028187
2004-03-18 11:14:41 51°13.52 2°51.17 6.885332 3.363479 33.123907 9.331571
2004-03-18 11:15:41 51°13.519 2°51.263 6.885529 3.363163 33.120454 8.893349
2004-03-18 11:16:40 51°13.47 2°51.292 6.889516 3.363584 33.120147 8.792221
2004-03-18 11:17:41 51°13.436 2°51.205 6.883659 3.365059 33.13544 8.893349
2004-03-18 11:18:41 51°13.411 2°51.141 6.888483 3.366849 33.161563 8.82593
2004-03-18 11:19:41 51°13.401 2°51.151 6.893946 3.369904 33.185928 8.589965
2004-03-18 11:20:40 51°13.396 2°51.176 6.90241 3.371168 33.19646 8.589965
2004-03-18 11:21:41 51°13.392 2°51.203 6.909152 3.372537 33.204041 8.320289
2004-03-18 11:22:41 51°13.393 2°51.229 6.907626 3.37338 33.207506 8.320289
2004-03-18 11:23:41 51°13.397 2°51.254 6.914662 3.373696 33.211778 8.792221
2004-03-18 11:24:41 51°13.403 2°51.276 6.916729 3.374749 33.215082 8.623674
2004-03-18 11:25:41 51°13.412 2°51.298 6.916384 3.375276 33.220015 8.792221
2004-03-18 11:26:41 51°13.424 2°51.318 6.919877 3.376013 33.221506 8.589965
2004-03-18 11:27:41 51°13.437 2°51.337 6.926568 3.37654 33.227258 8.455127
2004-03-18 11:28:41 51°13.45 2°51.354 6.926223 3.37675 33.226278 8.691093
2004-03-18 11:29:41 51°13.427 2°51.36 6.922928 3.376856 33.226608 8.387708
2004-03-18 11:30:41 51°13.407 2°51.474 6.920123 3.376329 33.229059 8.927059
2004-03-18 11:31:41 51°13.508 2°51.7 6.930306 3.377909 33.241393 9.365281
2004-03-18 11:32:41 51°13.655 2°52.024 6.919631 3.378857 33.24354 9.97205
2004-03-18 11:33:41 51°13.779 2°52.373 6.904477 3.37201 33.187629 10.174306
2004-03-18 11:34:41 51°13.924 2°52.702 6.905166 3.362847 33.094916 11.11817
2004-03-18 11:35:41 51°14.074 2°53.027 6.921796 3.359055 33.047799 11.151879
2004-03-18 11:36:41 51°14.214 2°53.367 6.92337 3.356948 33.013391 10.646238
2004-03-18 11:37:39 51°14.335 2°53.708 6.922485 3.353998 32.979585 10.443982
2004-03-18 11:38:41 51°14.394 2°54.112 6.903493 3.34968 32.943862 12.466546
2004-03-18 11:39:41 51°14.409 2°54.51 6.923961 3.348837 32.918413 12.837349
2004-03-18 11:40:40 51°14.395 2°54.869 6.895718 3.338936 32.829102 13.410409